Time;durP1;ratioP1;P1;durP2;ratioP2;P2;SDS_P1;SDS_P2;PMS_P1;PMS_P2;Temp;Humidity;BMP_temperature;BMP_pressure;BME280_temperature;BME280_humidity;BME280_pressure;Samples;Min_cycle;Max_cycle;Signal;HPM_P1;HPM_P2
2023/03/26 00:01:45;;;;;;;13.30;2.70;;;;;;;7.78;58.99;99191.06;10393598;28;20049;-64
2023/03/26 00:06:47;;;;;;;9.25;2.15;;;;;;;7.77;59.06;99192.00;10395624;28;20048;-64
2023/03/26 00:11:49;;;;;;;11.25;2.55;;;;;;;7.75;59.12;99193.84;10395784;28;20045;-64
2023/03/26 00:16:52;;;;;;;14.48;2.53;;;;;;;7.71;59.44;99193.19;10405586;28;20052;-64
2023/03/26 00:21:56;;;;;;;10.88;2.58;;;;;;;7.77;59.08;99198.03;10387916;28;20076;-64
2023/03/26 00:26:58;;;;;;;13.55;2.50;;;;;;;7.72;59.26;99189.66;10393056;28;20832;-64
2023/03/26 00:32:00;;;;;;;18.83;3.17;;;;;;;7.64;59.56;99191.03;10389959;28;20046;-64
2023/03/26 00:37:02;;;;;;;13.68;2.70;;;;;;;7.58;59.79;99184.44;10395489;28;20520;-65
2023/03/26 00:42:06;;;;;;;13.38;2.95;;;;;;;7.65;59.57;99192.72;10393177;28;20041;-64
2023/03/26 00:47:07;;;;;;;16.45;2.97;;;;;;;7.61;59.76;99186.84;10398812;28;20321;-64
2023/03/26 00:52:09;;;;;;;11.23;2.53;;;;;;;7.65;59.65;99183.13;10394241;28;20045;-64
2023/03/26 00:57:14;;;;;;;13.77;3.47;;;;;;;7.71;59.65;99187.16;10394514;28;20432;-64
2023/03/26 01:02:32;;;;;;;15.32;3.97;;;;;;;7.75;59.50;99181.66;10391387;28;20402;-64
2023/03/26 01:07:34;;;;;;;15.25;4.00;;;;;;;7.70;59.71;99170.69;10398118;28;20088;-64
2023/03/26 01:12:35;;;;;;;13.18;2.58;;;;;;;7.71;59.74;99167.16;10393242;28;20297;-63
2023/03/26 01:17:37;;;;;;;12.48;2.88;;;;;;;7.70;59.75;99157.69;10373775;28;20041;-64
2023/03/26 01:22:48;;;;;;;13.20;2.92;;;;;;;7.69;59.99;99158.59;10392568;28;20134;-64
2023/03/26 01:27:53;;;;;;;14.57;2.60;;;;;;;7.63;60.05;99155.56;10393118;28;20061;-63
2023/03/26 01:33:13;;;;;;;13.55;3.13;;;;;;;7.64;60.15;99149.41;10370703;28;20056;-63
2023/03/26 01:38:45;;;;;;;12.02;2.85;;;;;;;7.63;60.42;99135.56;10390042;28;20045;-63
2023/03/26 01:43:57;;;;;;;14.05;2.70;;;;;;;7.67;60.24;99139.66;10380021;28;20045;-64
2023/03/26 01:48:58;;;;;;;13.10;2.75;;;;;;;7.56;60.61;99131.66;10391491;28;20437;-63
2023/03/26 01:54:04;;;;;;;14.35;3.05;;;;;;;7.55;60.61;99118.75;10388801;28;20513;-64
2023/03/26 01:59:15;;;;;;;14.07;2.78;;;;;;;7.42;61.26;99121.25;10389543;28;20053;-63
2023/03/26 02:04:25;;;;;;;15.10;3.10;;;;;;;7.44;61.17;99119.38;10394803;28;20049;-63
2023/03/26 02:09:30;;;;;;;12.70;2.72;;;;;;;7.43;61.30;99109.91;10398234;28;20049;-64
2023/03/26 02:14:33;;;;;;;14.13;3.15;;;;;;;7.45;61.17;99107.22;10393975;28;20442;-64
2023/03/26 02:19:35;;;;;;;15.77;2.90;;;;;;;7.45;61.17;99105.44;10398472;28;20065;-64
2023/03/26 02:24:37;;;;;;;14.13;3.55;;;;;;;7.55;60.81;99093.53;10395037;28;20068;-63
2023/03/26 02:29:39;;;;;;;14.05;3.05;;;;;;;7.54;60.90;99081.47;10395517;28;20088;-64
2023/03/26 02:34:42;;;;;;;15.32;3.10;;;;;;;7.57;60.63;99078.69;10392325;28;20053;-63
2023/03/26 02:39:43;;;;;;;17.02;3.00;;;;;;;7.58;60.73;99061.31;10397039;28;20045;-64
2023/03/26 02:44:45;;;;;;;11.18;2.72;;;;;;;7.64;60.51;99072.19;10393790;28;20064;-63
2023/03/26 02:49:47;;;;;;;16.58;3.10;;;;;;;7.66;60.44;99072.94;10395633;28;20052;-63
2023/03/26 02:54:49;;;;;;;13.35;2.70;;;;;;;7.67;60.55;99071.16;10409555;28;20049;-64
2023/03/26 02:59:51;;;;;;;14.15;3.03;;;;;;;7.78;60.27;99064.34;10397159;28;20046;-63
2023/03/26 03:05:00;;;;;;;12.88;2.47;;;;;;;7.94;60.15;99052.06;10392660;28;20041;-63
2023/03/26 03:10:03;;;;;;;14.50;3.00;;;;;;;8.00;60.22;99048.22;10383857;28;20042;-63
2023/03/26 03:15:05;;;;;;;14.18;2.85;;;;;;;8.07;60.23;99049.53;10390593;28;20518;-63
2023/03/26 03:20:13;;;;;;;16.45;3.30;;;;;;;8.06;60.35;99032.22;10383234;28;20065;-63
2023/03/26 03:25:16;;;;;;;14.48;2.88;;;;;;;8.01;60.50;99023.88;10388567;28;20601;-63
2023/03/26 03:30:18;;;;;;;14.40;2.75;;;;;;;7.99;60.41;99026.59;10387778;28;20076;-63
2023/03/26 03:35:20;;;;;;;11.75;2.75;;;;;;;8.10;60.27;99019.84;10392717;28;20140;-63
2023/03/26 03:40:21;;;;;;;12.98;2.72;;;;;;;8.20;60.06;99002.72;10397122;28;20045;-63
2023/03/26 03:45:23;;;;;;;15.57;3.00;;;;;;;8.30;59.67;99001.19;10399715;28;20045;-63
2023/03/26 03:50:25;;;;;;;11.13;3.00;;;;;;;8.37;59.59;98989.44;10382071;28;20049;-63
2023/03/26 03:55:27;;;;;;;13.75;3.00;;;;;;;8.42;59.75;98984.75;10396693;28;20049;-63
2023/03/26 04:00:29;;;;;;;15.60;2.90;;;;;;;8.49;59.65;98983.41;10395974;28;20047;-63
2023/03/26 04:05:32;;;;;;;14.20;2.83;;;;;;;8.50;59.96;98980.72;10398814;28;20044;-62
2023/03/26 04:10:33;;;;;;;14.38;3.00;;;;;;;8.45;60.44;98981.94;10409695;28;20199;-62
2023/03/26 04:15:35;;;;;;;15.18;3.28;;;;;;;8.44;60.75;98969.84;10395543;28;20497;-64
2023/03/26 04:20:40;;;;;;;15.25;2.97;;;;;;;8.40;61.00;98968.41;10376045;28;20087;-63
2023/03/26 04:25:47;;;;;;;15.05;2.90;;;;;;;8.36;61.03;98959.13;10398943;28;20072;-63
2023/03/26 04:30:52;;;;;;;19.42;2.85;;;;;;;8.31;61.40;98943.78;10392583;28;20049;-63
2023/03/26 04:35:55;;;;;;;15.23;3.15;;;;;;;8.16;61.66;98926.53;10396335;28;20045;-63
2023/03/26 04:40:59;;;;;;;16.90;2.72;;;;;;;7.98;62.20;98919.91;10392681;28;20697;-63
2023/03/26 04:46:03;;;;;;;17.55;3.03;;;;;;;7.95;62.36;98913.16;10397675;28;20118;-62
2023/03/26 04:51:08;;;;;;;15.43;3.03;;;;;;;8.00;62.40;98900.66;10396810;28;20098;-63
2023/03/26 04:56:35;;;;;;;14.10;2.95;;;;;;;7.92;62.60;98895.13;10378639;28;20061;-64
2023/03/26 05:01:39;;;;;;;14.18;2.90;;;;;;;8.00;62.51;98890.25;10392244;28;20505;-63
2023/03/26 05:06:40;;;;;;;15.82;3.17;;;;;;;7.99;62.61;98878.16;10392675;28;20055;-64
2023/03/26 05:11:42;;;;;;;16.98;3.03;;;;;;;7.87;62.84;98867.72;10393311;28;20560;-63
2023/03/26 05:16:46;;;;;;;15.88;3.30;;;;;;;7.92;63.08;98856.06;10392643;28;20049;-63
2023/03/26 05:21:48;;;;;;;16.67;3.15;;;;;;;7.80;63.40;98854.28;10392290;28;20041;-63
2023/03/26 05:26:50;;;;;;;15.95;3.42;;;;;;;7.88;63.23;98832.94;10390542;28;20386;-63
2023/03/26 05:31:52;;;;;;;17.50;3.40;;;;;;;7.82;62.94;98823.78;10391814;28;20056;-63
2023/03/26 05:36:53;;;;;;;10.52;2.97;;;;;;;7.86;62.92;98820.03;10388710;28;20042;-63
2023/03/26 05:41:55;;;;;;;12.88;2.58;;;;;;;7.90;63.33;98816.28;10388766;28;20041;-63
2023/03/26 05:46:57;;;;;;;12.80;3.03;;;;;;;7.93;63.11;98799.63;10392419;28;20056;-63
2023/03/26 05:51:58;;;;;;;16.88;3.00;;;;;;;7.72;63.80;98788.88;10390072;28;20056;-63
2023/03/26 05:57:00;;;;;;;19.88;3.30;;;;;;;7.69;64.06;98780.44;10396219;28;20485;-63
2023/03/26 06:02:02;;;;;;;21.55;3.97;;;;;;;7.45;65.08;98769.06;10388516;28;20445;-63
2023/03/26 06:07:03;;;;;;;15.93;3.78;;;;;;;7.25;65.80;98764.28;10391236;28;20048;-63
2023/03/26 06:12:07;;;;;;;16.15;4.18;;;;;;;7.36;65.67;98760.06;10390298;28;20184;-64
2023/03/26 06:17:09;;;;;;;19.35;3.70;;;;;;;7.46;65.76;98755.94;10391369;28;20072;-63
2023/03/26 06:22:11;;;;;;;18.20;3.63;;;;;;;7.45;66.11;98746.44;10392505;28;20344;-64
2023/03/26 06:27:13;;;;;;;19.85;3.45;;;;;;;7.74;65.51;98744.53;10371449;28;20068;-64
2023/03/26 06:32:14;;;;;;;13.35;3.40;;;;;;;7.98;65.01;98732.44;10400308;28;20050;-64
2023/03/26 06:37:21;;;;;;;15.30;3.25;;;;;;;8.10;65.01;98723.84;10393436;28;20188;-64
2023/03/26 06:42:22;;;;;;;17.30;3.50;;;;;;;7.99;65.17;98719.34;10391768;28;20135;-65
2023/03/26 06:47:44;;;;;;;12.48;3.33;;;;;;;7.88;65.18;98715.78;10384122;28;20053;-65
2023/03/26 06:52:46;;;;;;;26.80;4.35;;;;;;;8.07;65.52;98726.63;10380572;28;20437;-65
2023/03/26 06:57:49;;;;;;;17.42;3.75;;;;;;;8.20;65.63;98724.06;10400351;28;20042;-64
2023/03/26 07:02:51;;;;;;;18.73;4.18;;;;;;;8.34;65.32;98716.97;10387492;28;20102;-65
2023/03/26 07:07:53;;;;;;;15.27;3.13;;;;;;;8.40;65.05;98713.09;10385893;28;20049;-65
2023/03/26 07:12:55;;;;;;;22.92;3.72;;;;;;;8.45;64.92;98703.16;10382695;28;20045;-64
2023/03/26 07:17:56;;;;;;;16.17;3.60;;;;;;;8.47;64.86;98694.28;10389189;28;20045;-65
2023/03/26 07:22:58;;;;;;;20.70;4.25;;;;;;;8.48;65.08;98695.13;10383424;28;20583;-65
2023/03/26 07:28:20;;;;;;;19.25;4.80;;;;;;;8.33;65.69;98688.38;10384938;28;20042;-65
2023/03/26 07:33:32;;;;;;;14.70;3.38;;;;;;;8.38;65.43;98678.50;10391415;28;20217;-65
2023/03/26 07:39:08;;;;;;;16.27;4.20;;;;;;;8.37;65.66;98667.22;10397020;28;20044;-65
2023/03/26 07:45:01;;;;;;;23.38;5.10;;;;;;;8.40;65.60;98667.03;10389058;28;20049;-65
2023/03/26 07:50:06;;;;;;;16.52;4.63;;;;;;;8.57;65.02;98666.63;10362373;28;20052;-65
2023/03/26 07:55:13;;;;;;;14.88;4.53;;;;;;;8.68;64.63;98658.06;10394832;28;20064;-65
2023/03/26 08:00:27;;;;;;;9.95;3.60;;;;;;;8.69;64.03;98647.50;10384728;28;20333;-65
2023/03/26 08:05:33;;;;;;;19.25;4.88;;;;;;;8.70;64.24;98632.72;10381009;28;20565;-65
2023/03/26 08:10:41;;;;;;;13.77;4.85;;;;;;;8.64;64.23;98638.38;10378578;28;20049;-65
2023/03/26 08:16:06;;;;;;;19.23;5.85;;;;;;;8.57;64.78;98624.94;10382364;28;20132;-65
2023/03/26 08:21:30;;;;;;;20.55;6.68;;;;;;;8.55;64.71;98628.59;10379184;28;20060;-65
2023/03/26 08:26:44;;;;;;;19.45;7.47;;;;;;;8.57;64.67;98630.16;10387784;28;20792;-65
2023/03/26 08:31:48;;;;;;;18.58;6.60;;;;;;;8.53;64.83;98615.69;10385309;28;20501;-65
2023/03/26 08:36:50;;;;;;;14.85;5.88;;;;;;;8.67;64.52;98605.09;10382106;28;20450;-64
2023/03/26 08:42:19;;;;;;;17.15;5.50;;;;;;;8.57;64.84;98600.66;10384667;28;20756;-64
2023/03/26 08:47:46;;;;;;;11.55;4.97;;;;;;;8.68;64.63;98595.50;10383648;28;20075;-64
2023/03/26 08:53:24;;;;;;;16.33;5.68;;;;;;;8.63;64.45;98589.78;10384619;28;20437;-64
2023/03/26 08:58:35;;;;;;;10.63;4.90;;;;;;;8.68;64.37;98595.50;10383815;28;20094;-65
2023/03/26 09:03:40;;;;;;;14.30;4.75;;;;;;;8.74;64.06;98593.28;10381134;28;20595;-65
2023/03/26 09:09:06;;;;;;;12.23;4.97;;;;;;;8.63;64.37;98592.38;10385192;28;20050;-64
2023/03/26 09:14:38;;;;;;;13.32;5.22;;;;;;;8.71;64.10;98579.63;10376029;28;20966;-65
2023/03/26 09:19:55;;;;;;;16.55;5.88;;;;;;;8.89;64.15;98587.88;10385241;28;20045;-65
2023/03/26 09:25:22;;;;;;;11.07;5.10;;;;;;;8.90;63.88;98581.72;10381057;28;20494;-64
2023/03/26 09:30:36;;;;;;;14.00;4.82;;;;;;;9.07;63.87;98569.09;10388709;28;20049;-67
2023/03/26 09:35:52;;;;;;;11.93;5.60;;;;;;;9.46;63.43;98558.22;10389218;28;20479;-68
2023/03/26 09:41:06;;;;;;;10.10;4.22;;;;;;;10.05;61.91;98544.94;10386391;28;20045;-68
2023/03/26 09:46:27;;;;;;;5.82;2.72;;;;;;;10.15;60.29;98532.81;10386124;28;20045;-68
2023/03/26 09:51:48;;;;;;;6.65;1.80;;;;;;;10.31;58.61;98514.94;10388264;28;20421;-68
2023/03/26 09:56:56;;;;;;;6.35;1.95;;;;;;;10.37;60.35;98514.44;10391502;28;20406;-68
2023/03/26 10:02:33;;;;;;;6.40;1.73;;;;;;;9.96;59.55;98501.25;10387528;28;20426;-68
2023/03/26 10:08:06;;;;;;;3.97;1.67;;;;;;;10.06;60.55;98503.03;10387620;28;20402;-68
2023/03/26 10:13:22;;;;;;;6.57;1.80;;;;;;;10.04;61.06;98493.66;10386457;28;20466;-68
2023/03/26 10:18:32;;;;;;;6.72;1.60;;;;;;;10.42;59.13;98493.97;10384537;28;20059;-68
2023/03/26 10:23:44;;;;;;;4.80;1.60;;;;;;;10.53;59.68;98491.31;10384016;28;20053;-69
2023/03/26 10:28:54;;;;;;;4.53;1.63;;;;;;;10.89;59.26;98479.63;10379248;28;20049;-68
2023/03/26 10:34:04;;;;;;;6.47;2.20;;;;;;;10.72;59.88;98486.25;10380767;28;21895;-69
2023/03/26 10:39:27;;;;;;;4.20;1.65;;;;;;;10.68;60.96;98499.69;10384497;28;20647;-68
2023/03/26 10:44:48;;;;;;;4.50;1.70;;;;;;;10.53;60.02;98488.72;10386825;28;20080;-68
2023/03/26 10:50:14;;;;;;;4.28;1.65;;;;;;;10.36;60.29;98478.81;10380765;28;20053;-68
2023/03/26 10:55:31;;;;;;;5.25;1.90;;;;;;;10.49;60.08;98469.00;10376030;28;20045;-68
2023/03/26 11:00:42;;;;;;;5.05;2.17;;;;;;;10.79;59.68;98463.84;10383124;28;20072;-68
2023/03/26 11:05:55;;;;;;;4.90;1.40;;;;;;;10.94;58.50;98457.34;10385478;28;20394;-68
2023/03/26 11:11:09;;;;;;;5.15;2.60;;;;;;;10.83;59.03;98456.56;10385208;28;20079;-68
2023/03/26 11:16:18;;;;;;;5.70;1.63;;;;;;;10.71;59.36;98450.59;10385073;28;20716;-68
2023/03/26 11:21:37;;;;;;;4.47;1.52;;;;;;;10.43;60.42;98448.59;10383305;28;20194;-68
2023/03/26 11:26:48;;;;;;;4.45;1.67;;;;;;;10.79;59.91;98439.47;10384687;28;20568;-68
2023/03/26 11:32:02;;;;;;;5.50;1.70;;;;;;;11.04;58.47;98426.84;10384876;28;20057;-68
2023/03/26 11:37:14;;;;;;;5.93;1.70;;;;;;;10.74;58.87;98432.03;10423653;28;20049;-68
2023/03/26 11:42:20;;;;;;;8.23;2.40;;;;;;;10.64;59.59;98431.16;10390319;28;20053;-69
2023/03/26 11:47:34;;;;;;;6.35;2.80;;;;;;;10.47;60.75;98419.47;10386538;28;20402;-68
2023/03/26 11:52:36;;;;;;;5.20;2.15;;;;;;;10.44;61.01;98417.13;10392748;28;20299;-68
2023/03/26 11:57:44;;;;;;;3.92;1.60;;;;;;;10.69;61.31;98408.06;10392048;28;20048;-68
2023/03/26 12:02:47;;;;;;;3.78;1.42;;;;;;;11.08;59.97;98399.47;10391891;28;20045;-68
2023/03/26 12:07:53;;;;;;;4.63;1.50;;;;;;;11.65;58.75;98387.50;10397936;28;20056;-68
2023/03/26 12:12:58;;;;;;;8.25;1.63;;;;;;;12.17;58.69;98381.88;10391967;28;20045;-67
2023/03/26 12:18:22;;;;;;;7.95;3.10;;;;;;;12.47;58.03;98375.66;10396925;28;20067;-67
2023/03/26 12:23:56;;;;;;;4.80;1.25;;;;;;;12.44;57.56;98370.69;10388730;28;20045;-68
2023/03/26 12:29:05;;;;;;;4.25;1.38;;;;;;;12.45;57.05;98367.09;10385778;28;20067;-68
2023/03/26 12:34:17;;;;;;;3.30;1.40;;;;;;;12.74;56.21;98362.63;10387175;28;20709;-67
2023/03/26 12:39:28;;;;;;;3.13;1.27;;;;;;;12.91;56.45;98346.13;10387447;28;20603;-69
2023/03/26 12:44:54;;;;;;;2.72;1.15;;;;;;;12.87;55.47;98342.97;10387275;28;20045;-69
2023/03/26 12:49:58;;;;;;;5.28;1.40;;;;;;;12.95;54.63;98327.31;10389898;28;20061;-69
2023/03/26 12:55:11;;;;;;;5.00;1.20;;;;;;;12.74;53.58;98331.94;10370362;28;20045;-67
2023/03/26 13:00:20;;;;;;;4.72;1.20;;;;;;;12.98;52.55;98318.34;10386073;28;20488;-69
2023/03/26 13:05:40;;;;;;;4.95;1.35;;;;;;;13.05;52.64;98316.75;10382037;28;20041;-68
2023/03/26 13:11:19;;;;;;;2.93;1.10;;;;;;;13.14;50.84;98312.44;10385192;28;20245;-67
2023/03/26 13:16:35;;;;;;;4.47;1.10;;;;;;;13.18;50.59;98298.06;10388019;28;20045;-69
2023/03/26 13:21:39;;;;;;;2.78;1.10;;;;;;;12.95;51.67;98303.69;10385552;28;20057;-69
2023/03/26 13:26:55;;;;;;;5.88;1.20;;;;;;;12.86;50.46;98291.44;10390372;28;20040;-68
2023/03/26 13:32:05;;;;;;;3.20;1.08;;;;;;;12.92;50.54;98282.97;10391811;28;20052;-69
2023/03/26 13:37:16;;;;;;;3.42;1.00;;;;;;;12.94;49.78;98269.75;10402925;28;20326;-69
2023/03/26 13:42:36;;;;;;;3.42;1.10;;;;;;;12.75;48.88;98286.41;10382978;28;20061;-67
2023/03/26 13:47:44;;;;;;;5.22;1.13;;;;;;;12.22;50.70;98298.41;10391070;28;20147;-68
2023/03/26 13:53:11;;;;;;;3.00;1.00;;;;;;;11.86;50.97;98293.91;10385651;28;20033;-68
2023/03/26 13:58:22;;;;;;;2.50;1.00;;;;;;;12.38;50.44;98289.97;10389602;28;20285;-69
2023/03/26 14:03:50;;;;;;;3.13;1.20;;;;;;;12.32;50.09;98308.91;10388045;28;20044;-69
2023/03/26 14:09:05;;;;;;;4.60;1.00;;;;;;;11.94;52.09;98325.50;10383077;28;20135;-70
2023/03/26 14:14:16;;;;;;;1.83;0.65;;;;;;;11.13;53.95;98324.00;10381438;28;20045;-69
2023/03/26 14:19:53;;;;;;;1.02;0.75;;;;;;;11.14;55.00;98311.75;10383061;28;20751;-70
2023/03/26 14:25:19;;;;;;;1.45;0.70;;;;;;;11.25;54.90;98309.84;10379552;28;20311;-69
2023/03/26 14:30:50;;;;;;;1.73;0.88;;;;;;;10.77;56.65;98339.41;10385274;28;20045;-70
2023/03/26 14:36:16;;;;;;;6.38;1.08;;;;;;;10.08;59.86;98349.63;10307003;28;20044;-69
2023/03/26 14:41:32;;;;;;;1.65;0.80;;;;;;;9.91;60.55;98354.59;10384803;28;20163;-70
2023/03/26 14:46:55;;;;;;;2.40;0.90;;;;;;;9.75;60.93;98364.63;10404798;28;20129;-69
2023/03/26 14:52:06;;;;;;;2.28;1.02;;;;;;;9.85;61.50;98368.13;10383434;28;20428;-69
2023/03/26 14:57:08;;;;;;;2.83;1.30;;;;;;;9.63;61.56;98377.66;10390132;28;20041;-69
2023/03/26 15:02:31;;;;;;;4.35;1.20;;;;;;;9.06;64.37;98387.47;10385804;28;20579;-69
2023/03/26 15:07:51;;;;;;;1.42;0.73;;;;;;;8.98;62.80;98381.19;10387529;28;20347;-69
2023/03/26 15:13:29;;;;;;;3.17;1.00;;;;;;;8.91;63.16;98383.47;10386250;28;20474;-68
2023/03/26 15:18:56;;;;;;;2.22;0.80;;;;;;;8.74;63.16;98389.16;10386754;28;20037;-70
2023/03/26 15:24:25;;;;;;;2.60;0.93;;;;;;;8.94;63.56;98391.03;10384584;28;20728;-69
2023/03/26 15:29:54;;;;;;;4.38;0.80;;;;;;;9.20;63.37;98394.25;10387289;28;20301;-69
2023/03/26 15:35:22;;;;;;;3.20;0.90;;;;;;;9.29;63.08;98391.75;10390789;28;20407;-69
2023/03/26 15:40:24;;;;;;;3.05;1.05;;;;;;;9.57;62.55;98400.81;10395028;28;20052;-70
2023/03/26 15:45:39;;;;;;;1.83;0.95;;;;;;;9.75;62.23;98409.00;10393558;28;20052;-69
2023/03/26 15:51:38;;;;;;;1.92;0.75;;;;;;;9.63;62.76;98416.81;10389383;28;20052;-69
2023/03/26 15:56:53;;;;;;;1.05;0.73;;;;;;;9.62;62.05;98430.00;10240879;28;20443;-69
2023/03/26 16:02:43;;;;;;;1.58;0.68;;;;;;;9.59;62.10;98414.56;10365344;28;20220;-69
2023/03/26 16:08:13;;;;;;;1.98;0.70;;;;;;;9.52;62.36;98429.88;10367241;28;20057;-70
2023/03/26 16:13:24;;;;;;;2.13;0.90;;;;;;;9.52;62.37;98435.09;10399334;28;20091;-69
2023/03/26 16:18:48;;;;;;;1.33;0.80;;;;;;;9.44;63.58;98437.47;10396408;28;20041;-68
2023/03/26 16:24:11;;;;;;;3.55;1.20;;;;;;;9.52;63.49;98434.28;10390061;28;20738;-68
2023/03/26 16:29:13;;;;;;;3.38;1.00;;;;;;;9.27;63.46;98434.53;10394453;28;20517;-68
2023/03/26 16:34:25;;;;;;;2.28;1.00;;;;;;;9.26;64.42;98438.91;10388735;28;20524;-68
2023/03/26 16:40:19;;;;;;;3.95;1.63;;;;;;;9.20;64.48;98447.22;10389128;28;20099;-69
2023/03/26 16:45:33;;;;;;;3.88;1.33;;;;;;;9.15;64.67;98458.97;10379887;28;20506;-68
2023/03/26 16:51:03;;;;;;;2.90;1.00;;;;;;;9.16;64.39;98460.63;10388462;28;20080;-68
2023/03/26 16:56:14;;;;;;;1.85;1.20;;;;;;;8.95;64.46;98468.34;10387964;28;20497;-68
2023/03/26 17:01:26;;;;;;;4.90;2.40;;;;;;;8.77;64.66;98465.31;10384982;28;20037;-68
2023/03/26 17:07:07;;;;;;;1.65;1.08;;;;;;;8.75;64.54;98469.00;10385134;28;20124;-68
2023/03/26 17:12:59;;;;;;;2.47;1.40;;;;;;;8.74;65.23;98485.59;10359150;28;20135;-68
2023/03/26 17:18:35;;;;;;;3.40;2.30;;;;;;;8.66;65.57;98485.31;10318953;28;20391;-68
2023/03/26 17:24:12;;;;;;;2.65;1.40;;;;;;;8.69;65.47;98498.94;10379339;28;20790;-68
2023/03/26 17:30:02;;;;;;;5.53;3.50;;;;;;;8.68;65.69;98514.72;10385578;28;20048;-68
2023/03/26 17:35:08;;;;;;;5.60;3.03;;;;;;;8.57;65.65;98519.88;10389394;28;20052;-68
2023/03/26 17:40:45;;;;;;;2.10;1.38;;;;;;;8.39;66.66;98518.63;10383346;28;20386;-68
2023/03/26 17:45:48;;;;;;;5.50;4.20;;;;;;;8.38;66.26;98516.97;10388174;28;20041;-68
2023/03/26 17:51:29;;;;;;;5.80;4.18;;;;;;;8.28;66.44;98532.41;10391526;28;21173;-63
2023/03/26 17:56:36;;;;;;;8.45;5.00;;;;;;;8.27;66.51;98535.16;10390695;28;21204;-65
2023/03/26 18:01:40;;;;;;;4.35;2.85;;;;;;;8.31;66.46;98536.59;10389281;28;20057;-65
2023/03/26 18:07:18;;;;;;;8.88;4.80;;;;;;;8.19;67.06;98543.53;10386569;28;20049;-65
2023/03/26 18:12:44;;;;;;;4.38;2.67;;;;;;;8.25;66.86;98550.06;10387800;28;20412;-65
2023/03/26 18:17:46;;;;;;;2.35;1.67;;;;;;;8.28;66.52;98555.88;10384013;28;20052;-65
2023/03/26 18:22:50;;;;;;;3.25;1.70;;;;;;;8.28;66.12;98560.25;10389410;28;20068;-65
2023/03/26 18:27:52;;;;;;;2.88;2.00;;;;;;;8.31;66.33;98579.09;10388021;28;20049;-63
2023/03/26 18:33:11;;;;;;;4.22;1.70;;;;;;;8.21;65.92;98572.88;10386415;28;20571;-64
2023/03/26 18:38:21;;;;;;;3.20;2.13;;;;;;;8.21;66.09;98565.06;10389731;28;20077;-65
2023/03/26 18:43:39;;;;;;;2.90;1.85;;;;;;;8.17;65.69;98581.88;10419211;28;20422;-64
2023/03/26 18:48:45;;;;;;;3.60;1.95;;;;;;;8.22;65.66;98594.56;10388997;28;20056;-64
2023/03/26 18:53:57;;;;;;;3.97;2.08;;;;;;;8.17;66.21;98604.47;10389717;28;20056;-65
2023/03/26 18:59:01;;;;;;;4.57;2.13;;;;;;;8.26;65.79;98604.63;10387805;28;20045;-65
2023/03/26 19:04:05;;;;;;;3.80;2.30;;;;;;;8.23;65.88;98609.22;10384758;28;20213;-64
2023/03/26 19:09:09;;;;;;;5.55;2.65;;;;;;;8.18;65.97;98608.75;10366760;28;20292;-65
2023/03/26 19:14:26;;;;;;;4.85;2.08;;;;;;;8.06;65.75;98620.81;10388194;28;20037;-65
2023/03/26 19:19:32;;;;;;;2.33;1.30;;;;;;;8.05;65.20;98642.59;10385872;28;20049;-66
2023/03/26 19:24:35;;;;;;;1.60;1.20;;;;;;;7.97;65.57;98648.34;10384290;28;20052;-65
2023/03/26 19:29:38;;;;;;;2.30;1.40;;;;;;;7.86;65.39;98652.59;10384778;28;20049;-65
2023/03/26 19:34:40;;;;;;;2.80;1.20;;;;;;;7.71;65.41;98670.09;10384357;28;20504;-64
2023/03/26 19:39:44;;;;;;;3.63;1.33;;;;;;;7.67;65.47;98675.63;10387879;28;20051;-63
2023/03/26 19:44:46;;;;;;;1.98;1.10;;;;;;;7.72;65.68;98689.16;10389263;28;20045;-63
2023/03/26 19:49:55;;;;;;;1.48;1.10;;;;;;;7.56;65.65;98694.56;10372059;28;20048;-63
2023/03/26 19:55:01;;;;;;;1.92;1.23;;;;;;;7.56;65.26;98699.75;10395442;28;20077;-64
2023/03/26 20:00:12;;;;;;;2.55;1.30;;;;;;;7.49;65.27;98698.50;10386700;28;20073;-63
2023/03/26 20:05:25;;;;;;;1.65;1.20;;;;;;;7.46;65.31;98708.28;10387828;28;20530;-64
2023/03/26 20:10:27;;;;;;;2.58;1.30;;;;;;;7.55;64.96;98718.91;10385271;28;20053;-64
2023/03/26 20:15:33;;;;;;;2.08;1.30;;;;;;;7.49;64.96;98732.31;10393766;28;20044;-64
2023/03/26 20:20:35;;;;;;;3.05;1.30;;;;;;;7.57;65.13;98748.25;10394454;28;20375;-65
2023/03/26 20:25:45;;;;;;;2.20;1.30;;;;;;;7.39;64.96;98756.41;10394592;28;20045;-65
2023/03/26 20:30:48;;;;;;;2.13;1.50;;;;;;;7.37;65.34;98769.53;10392001;28;20502;-64
2023/03/26 20:35:53;;;;;;;1.88;1.30;;;;;;;7.40;64.79;98771.09;10390903;28;20524;-65
2023/03/26 20:40:56;;;;;;;3.15;1.55;;;;;;;7.44;64.97;98782.97;10395706;28;20056;-65
2023/03/26 20:45:59;;;;;;;2.67;1.60;;;;;;;7.31;64.67;98795.94;10380976;28;20219;-64
2023/03/26 20:51:01;;;;;;;2.83;1.50;;;;;;;7.33;64.71;98806.22;10391676;28;20295;-63
2023/03/26 20:56:03;;;;;;;5.60;1.90;;;;;;;7.14;64.79;98817.81;10390326;28;20041;-65
2023/03/26 21:01:05;;;;;;;3.92;2.00;;;;;;;7.16;64.67;98836.75;10389324;28;20053;-65
2023/03/26 21:06:14;;;;;;;6.40;2.20;;;;;;;7.21;63.88;98839.06;10392062;28;20045;-64
2023/03/26 21:11:30;;;;;;;4.10;2.20;;;;;;;7.15;63.88;98849.84;10393519;28;20053;-64
2023/03/26 21:16:32;;;;;;;5.13;2.20;;;;;;;7.11;63.79;98867.41;10392165;28;20693;-63
2023/03/26 21:21:51;;;;;;;8.80;2.58;;;;;;;7.02;63.84;98864.56;10391538;28;20051;-63
2023/03/26 21:27:13;;;;;;;4.45;2.40;;;;;;;6.93;63.30;98886.75;10390826;28;20155;-63
2023/03/26 21:32:15;;;;;;;6.15;2.58;;;;;;;6.90;63.19;98893.88;10376940;28;20368;-63
2023/03/26 21:37:17;;;;;;;6.43;2.75;;;;;;;6.87;62.90;98923.53;10387358;28;20049;-64
2023/03/26 21:42:20;;;;;;;6.00;3.10;;;;;;;6.75;62.46;98924.25;10390163;28;20045;-64
2023/03/26 21:47:21;;;;;;;9.93;3.38;;;;;;;6.65;62.31;98938.72;10390970;28;20547;-63
2023/03/26 21:52:24;;;;;;;11.38;4.25;;;;;;;6.37;61.78;98958.63;10389188;28;20709;-63
2023/03/26 21:57:43;;;;;;;12.00;4.50;;;;;;;6.19;60.89;98969.09;10388863;28;20068;-63
2023/03/26 22:03:22;;;;;;;14.40;5.07;;;;;;;6.23;60.88;98986.16;10388467;28;20393;-63
2023/03/26 22:08:37;;;;;;;17.85;6.03;;;;;;;6.04;61.38;98998.50;10390200;28;20435;-64
2023/03/26 22:13:39;;;;;;;18.20;5.38;;;;;;;5.98;60.63;98996.25;10388488;28;20053;-64
2023/03/26 22:18:42;;;;;;;19.08;5.78;;;;;;;6.15;61.03;99023.88;10386744;28;20041;-64
2023/03/26 22:23:51;;;;;;;24.20;5.13;;;;;;;5.98;59.96;99035.19;10372567;28;20053;-63
2023/03/26 22:28:53;;;;;;;21.20;5.35;;;;;;;6.00;60.66;99050.69;10390881;28;20417;-65
2023/03/26 22:33:55;;;;;;;21.23;5.15;;;;;;;6.16;60.24;99054.97;10388927;28;20041;-64
2023/03/26 22:38:57;;;;;;;20.17;5.10;;;;;;;6.21;60.02;99072.84;10387155;28;20319;-65
2023/03/26 22:44:00;;;;;;;23.60;5.43;;;;;;;6.06;60.18;99084.09;10386074;28;20072;-64
2023/03/26 22:49:19;;;;;;;23.60;4.72;;;;;;;6.08;59.70;99098.63;10373640;28;20055;-64
2023/03/26 22:54:21;;;;;;;20.40;4.90;;;;;;;6.04;60.40;99110.13;10371677;28;20041;-64
2023/03/26 22:59:23;;;;;;;19.20;4.28;;;;;;;6.00;59.62;99121.56;10389150;28;20052;-65
2023/03/26 23:04:29;;;;;;;15.50;3.72;;;;;;;5.76;58.98;99140.25;10388080;28;20056;-64
2023/03/26 23:09:33;;;;;;;14.05;3.03;;;;;;;5.71;57.85;99166.41;10387119;28;20045;-64
2023/03/26 23:14:35;;;;;;;16.52;3.22;;;;;;;5.65;57.00;99179.72;10381734;28;20453;-64
2023/03/26 23:19:37;;;;;;;15.88;3.30;;;;;;;5.69;56.93;99182.97;10389552;28;20056;-65
2023/03/26 23:24:39;;;;;;;14.45;2.95;;;;;;;5.56;56.57;99203.50;10386613;28;20172;-65
2023/03/26 23:29:41;;;;;;;13.85;2.70;;;;;;;5.39;56.70;99226.88;10386377;28;20053;-64
2023/03/26 23:34:44;;;;;;;14.73;2.60;;;;;;;5.40;56.90;99239.75;10400040;28;20063;-65
2023/03/26 23:39:52;;;;;;;14.23;2.47;;;;;;;5.02;55.45;99258.09;10416048;28;20057;-65
2023/03/26 23:44:55;;;;;;;11.32;2.58;;;;;;;4.82;56.43;99260.78;10386716;28;20053;-63
2023/03/26 23:49:57;;;;;;;16.77;3.15;;;;;;;4.57;56.46;99286.97;10396224;28;20476;-64
2023/03/26 23:54:58;;;;;;;11.93;2.47;;;;;;;4.29;56.12;99294.31;10393351;28;20051;-63
